createdAt,value
2023-02-13T00:00:22.669Z,40.19
2023-02-13T00:02:49.321Z,40.14
2023-02-13T00:05:15.962Z,40.09
2023-02-13T00:07:42.716Z,40.19
2023-02-13T00:10:09.789Z,40.05
2023-02-13T00:12:36.764Z,39.79
2023-02-13T00:15:04.146Z,39.83
2023-02-13T00:17:30.747Z,39.91
2023-02-13T00:19:57.765Z,39.48
2023-02-13T00:22:24.650Z,39.59
2023-02-13T00:24:51.462Z,39.51
2023-02-13T00:27:18.449Z,39.51
2023-02-13T00:29:45.093Z,39.44
2023-02-13T00:32:12.043Z,39.42
2023-02-13T00:34:38.791Z,39.37
2023-02-13T00:37:05.499Z,39.57
2023-02-13T00:39:32.035Z,39.27
2023-02-13T00:41:58.666Z,39.19
2023-02-13T00:44:25.410Z,39.16
2023-02-13T00:46:52.010Z,39.07
2023-02-13T00:49:18.585Z,38.84
2023-02-13T00:51:45.257Z,39.07
2023-02-13T00:54:11.766Z,39.02
2023-02-13T00:56:38.464Z,38.87
2023-02-13T00:59:06.121Z,39.02
2023-02-13T01:01:32.808Z,38.95
2023-02-13T01:03:59.909Z,38.90
2023-02-13T01:06:27.633Z,38.80
2023-02-13T01:08:54.364Z,38.82
2023-02-13T01:11:21.142Z,38.77
2023-02-13T01:13:47.792Z,38.74
2023-02-13T01:16:15.950Z,38.67
2023-02-13T01:18:42.581Z,38.75
2023-02-13T01:21:16.495Z,38.56
2023-02-13T01:23:43.111Z,38.57
2023-02-13T01:26:16.554Z,38.46
2023-02-13T01:28:43.310Z,38.42
2023-02-13T01:31:11.375Z,38.55
2023-02-13T01:33:38.074Z,38.50
2023-02-13T01:36:10.175Z,38.50
2023-02-13T01:38:38.235Z,38.46
2023-02-13T01:41:04.998Z,38.50
2023-02-13T01:43:54.115Z,38.33
2023-02-13T01:46:50.425Z,38.33
2023-02-13T01:49:20.938Z,38.18
2023-02-13T01:51:49.791Z,38.27
2023-02-13T01:54:22.575Z,38.42
2023-02-13T01:56:55.557Z,38.25
2023-02-13T01:59:33.405Z,38.14
2023-02-13T02:02:01.447Z,38.33
2023-02-13T02:04:38.296Z,38.12
2023-02-13T02:07:18.969Z,38.19
2023-02-13T02:09:48.013Z,38.15
2023-02-13T02:12:24.319Z,38.02
2023-02-13T02:14:53.924Z,38.14
2023-02-13T02:17:23.746Z,37.98
2023-02-13T02:20:24.536Z,37.96
2023-02-13T02:23:04.512Z,38.08
2023-02-13T02:25:38.978Z,38.03
2023-02-13T02:28:21.716Z,37.84
2023-02-13T02:31:00.767Z,37.88
2023-02-13T02:33:45.939Z,37.77
2023-02-13T02:36:22.954Z,37.81
2023-02-13T02:38:58.585Z,37.90
2023-02-13T02:41:45.559Z,37.70
2023-02-13T02:44:35.616Z,37.58
2023-02-13T02:47:43.175Z,37.68
2023-02-13T02:50:32.758Z,37.83
2023-02-13T02:53:14.528Z,37.67
2023-02-13T02:55:43.606Z,37.78
2023-02-13T02:58:30.191Z,37.85
2023-02-13T03:01:19.725Z,37.76
2023-02-13T03:04:06.137Z,37.66
2023-02-13T03:06:46.345Z,37.72
2023-02-13T03:09:37.541Z,37.62
2023-02-13T03:12:23.262Z,37.62
2023-02-13T03:14:49.934Z,37.61
2023-02-13T03:17:37.796Z,37.63
2023-02-13T03:20:52.234Z,37.39
2023-02-13T03:24:11.323Z,37.37
2023-02-13T03:26:50.362Z,37.39
2023-02-13T03:29:51.615Z,37.42
2023-02-13T03:32:32.441Z,37.26
2023-02-13T03:35:27.840Z,37.32
2023-02-13T03:38:01.118Z,37.23
2023-02-13T03:40:59.835Z,37.19
2023-02-13T03:43:29.879Z,37.23
2023-02-13T03:45:58.066Z,37.08
2023-02-13T03:48:49.915Z,37.07
2023-02-13T03:51:23.673Z,36.91
2023-02-13T03:53:54.742Z,37.03
2023-02-13T03:56:40.520Z,36.80
2023-02-13T03:59:18.882Z,36.90
2023-02-13T04:01:51.585Z,36.84
2023-02-13T04:04:35.642Z,36.81
2023-02-13T04:07:10.614Z,36.69
2023-02-13T04:09:39.983Z,36.70
2023-02-13T04:12:45.030Z,36.67
2023-02-13T04:15:20.514Z,36.58
2023-02-13T04:17:53.852Z,36.58
2023-02-13T04:20:20.726Z,36.56
2023-02-13T04:22:48.371Z,36.49
2023-02-13T04:25:17.886Z,36.35
2023-02-13T04:27:44.609Z,36.37
2023-02-13T04:30:12.362Z,36.42
2023-02-13T04:32:38.921Z,36.31
2023-02-13T04:35:06.042Z,36.31
2023-02-13T04:37:32.637Z,36.26
2023-02-13T04:39:59.279Z,36.21
2023-02-13T04:42:25.925Z,36.17
2023-02-13T04:44:52.500Z,36.11
2023-02-13T04:47:18.990Z,36.01
2023-02-13T04:49:45.757Z,36.06
2023-02-13T04:52:12.334Z,36.03
2023-02-13T04:54:38.930Z,35.92
2023-02-13T04:57:05.491Z,35.97
2023-02-13T04:59:32.377Z,35.91
2023-02-13T05:01:59.344Z,35.95
2023-02-13T05:04:26.165Z,35.96
2023-02-13T05:06:52.859Z,36.00
2023-02-13T05:09:19.466Z,35.94
2023-02-13T05:11:46.026Z,35.93
2023-02-13T05:14:12.809Z,35.78
2023-02-13T05:16:39.353Z,35.70
2023-02-13T05:19:06.076Z,35.74
2023-02-13T05:21:51.412Z,35.65
2023-02-13T05:24:20.368Z,35.59
2023-02-13T05:26:47.404Z,35.70
2023-02-13T05:29:20.128Z,35.69
2023-02-13T05:31:48.411Z,35.41
2023-02-13T05:34:16.308Z,35.65
2023-02-13T05:36:43.107Z,35.44
2023-02-13T05:39:09.765Z,35.76
2023-02-13T05:41:36.463Z,36.10
2023-02-13T05:44:03.543Z,36.16
2023-02-13T05:46:30.169Z,36.37
2023-02-13T05:48:56.800Z,36.32
2023-02-13T05:51:23.625Z,36.20
2023-02-13T05:53:50.159Z,36.13
2023-02-13T05:56:16.831Z,36.18
2023-02-13T05:58:45.117Z,36.35
2023-02-13T06:01:11.883Z,36.41
2023-02-13T06:03:40.210Z,36.39
2023-02-13T06:06:07.497Z,36.32
2023-02-13T06:08:34.180Z,36.45
2023-02-13T06:11:01.864Z,36.26
2023-02-13T06:13:28.641Z,36.14
2023-02-13T06:15:58.103Z,36.21
2023-02-13T06:18:24.996Z,36.09
2023-02-13T06:20:51.678Z,36.17
2023-02-13T06:23:18.432Z,35.90
2023-02-13T06:25:44.985Z,35.92
2023-02-13T06:28:11.670Z,35.97
2023-02-13T06:30:38.294Z,35.77
2023-02-13T06:33:04.931Z,35.90
2023-02-13T06:35:32.328Z,36.08
2023-02-13T06:37:58.896Z,36.03
2023-02-13T06:40:25.813Z,35.94
2023-02-13T06:42:52.722Z,35.87
2023-02-13T06:45:19.463Z,35.83
2023-02-13T06:47:48.742Z,35.75
2023-02-13T06:50:18.243Z,35.78
2023-02-13T06:52:52.193Z,35.63
2023-02-13T06:55:19.278Z,35.66
2023-02-13T06:57:46.079Z,35.93
2023-02-13T07:00:14.596Z,35.92
2023-02-13T07:02:43.107Z,35.90
2023-02-13T07:05:11.521Z,35.97
2023-02-13T07:07:40.964Z,35.77
2023-02-13T07:10:10.525Z,35.75
2023-02-13T07:12:37.270Z,35.72
2023-02-13T07:15:05.027Z,35.80
2023-02-13T07:17:32.365Z,35.47
2023-02-13T07:19:59.265Z,35.51
2023-02-13T07:22:25.903Z,35.41
2023-02-13T07:24:52.648Z,35.43
2023-02-13T07:27:19.216Z,35.26
2023-02-13T07:29:45.885Z,35.12
2023-02-13T07:32:12.647Z,35.41
2023-02-13T07:34:44.456Z,34.94
2023-02-13T07:37:16.099Z,34.97
2023-02-13T07:39:42.894Z,34.64
2023-02-13T07:42:09.745Z,34.99
2023-02-13T07:44:37.001Z,34.98
2023-02-13T07:47:04.257Z,34.83
2023-02-13T07:49:30.937Z,34.79
2023-02-13T07:51:58.496Z,34.83
2023-02-13T07:54:25.103Z,34.81
2023-02-13T07:56:51.832Z,34.79
2023-02-13T07:59:18.459Z,34.97
2023-02-13T08:01:45.125Z,35.41
2023-02-13T08:04:11.789Z,35.66
2023-02-13T08:06:42.567Z,35.88
2023-02-13T08:09:39.529Z,35.96
2023-02-13T08:12:09.128Z,36.04
2023-02-13T08:14:38.788Z,36.01
2023-02-13T08:17:05.346Z,36.20
2023-02-13T08:19:32.032Z,36.22
2023-02-13T08:21:58.732Z,36.19
2023-02-13T08:24:25.413Z,36.40
2023-02-13T08:26:52.124Z,36.56
2023-02-13T08:29:18.799Z,36.99
2023-02-13T08:31:45.685Z,36.81
2023-02-13T08:34:12.553Z,36.96
2023-02-13T08:36:39.279Z,37.12
2023-02-13T08:39:06.091Z,37.05
2023-02-13T08:41:32.813Z,37.08
2023-02-13T08:43:59.381Z,37.01
2023-02-13T08:46:26.083Z,36.66
2023-02-13T08:48:52.760Z,37.07
2023-02-13T08:51:19.461Z,37.37
2023-02-13T08:53:46.191Z,37.49
2023-02-13T08:56:13.099Z,37.47
2023-02-13T08:59:58.904Z,37.38
2023-02-13T09:02:25.769Z,37.54
2023-02-13T09:04:52.392Z,37.25
2023-02-13T09:07:19.068Z,37.46
2023-02-13T09:09:45.676Z,37.64
2023-02-13T09:12:13.499Z,37.70
2023-02-13T09:14:40.690Z,37.66
2023-02-13T09:17:07.332Z,37.61
2023-02-13T09:19:35.310Z,37.58
2023-02-13T09:22:01.923Z,37.61
2023-02-13T09:24:28.673Z,37.64
2023-02-13T09:26:56.683Z,37.89
2023-02-13T09:29:23.784Z,38.21
2023-02-13T09:31:50.787Z,38.26
2023-02-13T09:34:17.667Z,38.19
2023-02-13T09:36:44.188Z,38.36
2023-02-13T09:39:10.917Z,38.40
2023-02-13T09:41:40.964Z,38.51
2023-02-13T09:44:34.110Z,38.67
2023-02-13T09:47:16.244Z,38.62
2023-02-13T09:49:48.645Z,38.79
2023-02-13T09:52:18.044Z,38.85
2023-02-13T09:54:44.811Z,38.72
2023-02-13T09:57:20.110Z,38.97
2023-02-13T10:00:11.865Z,38.46
2023-02-13T10:02:47.882Z,37.80
2023-02-13T10:05:31.762Z,37.51
2023-02-13T10:08:12.861Z,37.06
2023-02-13T10:11:05.071Z,37.11
2023-02-13T10:13:50.147Z,37.05
2023-02-13T10:16:23.409Z,36.92
2023-02-13T10:18:56.205Z,36.79
2023-02-13T10:24:45.961Z,37.04
2023-02-13T10:27:19.290Z,36.87
2023-02-13T10:30:12.610Z,36.86
2023-02-13T10:32:52.209Z,37.01
2023-02-13T10:35:27.361Z,36.92
2023-02-13T10:37:57.206Z,37.11
2023-02-13T10:40:32.192Z,37.00
2023-02-13T10:42:58.715Z,37.01
2023-02-13T10:45:58.144Z,37.02
2023-02-13T10:49:01.380Z,36.95
2023-02-13T10:52:11.370Z,37.21
2023-02-13T10:55:08.506Z,37.17
2023-02-13T10:57:57.972Z,37.14
2023-02-13T11:00:42.837Z,37.01
2023-02-13T11:03:21.984Z,36.80
2023-02-13T11:05:49.959Z,36.61
2023-02-13T11:08:24.409Z,36.62
2023-02-13T11:10:52.268Z,36.69
2023-02-13T11:13:27.519Z,36.83
2023-02-13T11:16:07.314Z,37.05
2023-02-13T11:18:41.020Z,36.97
2023-02-13T11:21:21.939Z,37.23
2023-02-13T11:23:56.261Z,37.15
2023-02-13T11:26:31.726Z,37.04
2023-02-13T11:29:04.212Z,37.12
2023-02-13T11:31:36.855Z,37.07
2023-02-13T11:34:26.301Z,37.08
2023-02-13T11:37:14.788Z,37.33
2023-02-13T11:39:42.691Z,37.27
2023-02-13T11:42:35.637Z,37.29
2023-02-13T11:45:24.080Z,37.23
2023-02-13T11:47:51.958Z,37.32
2023-02-13T11:50:24.342Z,37.19
2023-02-13T11:53:22.945Z,37.10
2023-02-13T11:56:13.632Z,37.19
2023-02-13T11:58:41.273Z,37.04
2023-02-13T12:01:20.105Z,36.88
2023-02-13T12:04:28.218Z,36.96
2023-02-13T12:07:12.502Z,36.75
2023-02-13T12:09:43.992Z,37.00
2023-02-13T12:12:18.573Z,36.87
2023-02-13T12:14:46.276Z,37.05
2023-02-13T12:17:30.701Z,36.70
2023-02-13T12:19:59.210Z,36.84
2023-02-13T12:22:50.714Z,36.75
2023-02-13T12:25:39.520Z,36.51
2023-02-13T12:28:17.272Z,36.43
2023-02-13T12:31:09.145Z,36.55
2023-02-13T12:34:00.426Z,36.42
2023-02-13T12:36:43.200Z,36.20
2023-02-13T12:39:12.763Z,36.14
2023-02-13T12:41:58.218Z,36.31
2023-02-13T12:44:45.904Z,36.42
2023-02-13T12:47:27.422Z,36.01
2023-02-13T12:50:28.771Z,35.79
2023-02-13T12:53:20.526Z,35.86
2023-02-13T12:56:18.558Z,35.81
2023-02-13T12:59:00.309Z,35.67
2023-02-13T13:02:07.251Z,35.75
2023-02-13T13:05:02.437Z,35.85
2023-02-13T13:07:31.781Z,35.71
2023-02-13T13:10:38.752Z,36.19
2023-02-13T13:13:12.957Z,36.13
2023-02-13T13:16:02.159Z,36.54
2023-02-13T13:18:53.645Z,36.75
2023-02-13T13:21:44.954Z,36.98
2023-02-13T13:24:49.939Z,37.46
2023-02-13T13:27:24.742Z,37.53
2023-02-13T13:30:01.881Z,37.74
2023-02-13T13:32:30.462Z,37.77
2023-02-13T13:34:58.097Z,37.91
2023-02-13T13:37:46.613Z,38.27
2023-02-13T13:40:49.376Z,38.46
2023-02-13T13:43:27.799Z,38.52
2023-02-13T13:46:12.138Z,38.67
2023-02-13T13:49:05.726Z,38.50
2023-02-13T13:51:32.535Z,38.84
2023-02-13T13:54:08.156Z,38.74
2023-02-13T13:56:53.262Z,38.90
2023-02-13T13:59:51.771Z,38.22
2023-02-13T14:02:18.401Z,37.51
2023-02-13T14:05:18.786Z,37.04
2023-02-13T14:07:47.528Z,36.91
2023-02-13T14:10:26.278Z,36.88
2023-02-13T14:12:55.764Z,37.19
2023-02-13T14:15:34.532Z,37.38
2023-02-13T14:18:14.110Z,37.39
2023-02-13T14:20:50.680Z,38.00
2023-02-13T14:23:32.379Z,38.10
2023-02-13T14:26:17.160Z,38.23
2023-02-13T14:28:57.547Z,38.37
2023-02-13T14:31:31.901Z,38.65
2023-02-13T14:34:05.445Z,38.69
2023-02-13T14:36:37.991Z,38.81
2023-02-13T14:39:18.367Z,38.82
2023-02-13T14:41:58.655Z,39.07
2023-02-13T14:44:51.318Z,39.30
2023-02-13T14:47:56.668Z,39.44
2023-02-13T14:50:32.620Z,39.55
2023-02-13T14:53:05.034Z,39.71
2023-02-13T14:55:36.397Z,39.90
2023-02-13T14:58:10.867Z,39.74
2023-02-13T15:00:45.894Z,39.96
2023-02-13T15:03:28.097Z,40.01
2023-02-13T15:06:02.952Z,39.96
2023-02-13T15:08:36.799Z,39.70
2023-02-13T15:11:03.702Z,38.72
2023-02-13T15:13:37.281Z,38.48
2023-02-13T15:16:08.636Z,37.75
2023-02-13T15:18:41.634Z,37.64
2023-02-13T15:21:15.091Z,37.31
2023-02-13T15:23:42.998Z,36.95
2023-02-13T15:26:19.012Z,36.94
2023-02-13T15:29:01.893Z,36.79
2023-02-13T15:31:33.510Z,36.50
2023-02-13T15:34:01.240Z,36.50
2023-02-13T15:36:36.297Z,36.39
2023-02-13T15:39:09.509Z,36.32
2023-02-13T15:41:43.698Z,36.06
2023-02-13T15:44:18.366Z,35.74
2023-02-13T15:46:48.307Z,35.57
2023-02-13T15:49:20.922Z,35.29
2023-02-13T15:51:50.528Z,35.24
2023-02-13T15:54:30.161Z,35.01
2023-02-13T15:57:00.151Z,35.07
2023-02-13T15:59:33.963Z,34.84
2023-02-13T16:02:03.401Z,34.75
2023-02-13T16:04:31.014Z,34.59
2023-02-13T16:06:58.902Z,34.61
2023-02-13T16:09:30.793Z,34.69
2023-02-13T16:12:01.616Z,34.50
2023-02-13T16:14:31.695Z,34.45
2023-02-13T16:17:00.234Z,34.44
2023-02-13T16:19:26.908Z,34.33
2023-02-13T16:21:57.238Z,34.41
2023-02-13T16:24:25.773Z,34.43
2023-02-13T16:26:52.784Z,34.44
2023-02-13T16:29:22.424Z,34.62
2023-02-13T16:31:52.710Z,34.45
2023-02-13T16:34:28.863Z,34.96
2023-02-13T16:36:56.441Z,34.91
2023-02-13T16:39:27.774Z,35.32
2023-02-13T16:41:54.726Z,35.45
2023-02-13T16:44:23.614Z,35.80
2023-02-13T16:46:53.651Z,35.68
2023-02-13T16:49:23.835Z,36.05
2023-02-13T16:51:55.184Z,36.28
2023-02-13T16:54:24.889Z,36.64
2023-02-13T16:57:19.699Z,37.24
2023-02-13T17:00:24.507Z,37.63
2023-02-13T17:02:51.995Z,37.64
2023-02-13T17:05:27.650Z,37.51
2023-02-13T17:08:00.392Z,36.93
2023-02-13T17:10:35.700Z,36.41
2023-02-13T17:13:13.267Z,36.05
2023-02-13T17:15:44.542Z,36.21
2023-02-13T17:18:11.282Z,36.15
2023-02-13T17:20:41.346Z,36.33
2023-02-13T17:23:17.441Z,36.37
2023-02-13T17:25:46.236Z,36.51
2023-02-13T17:28:15.595Z,36.79
2023-02-13T17:30:43.535Z,36.88
2023-02-13T17:33:25.112Z,36.97
2023-02-13T17:35:53.404Z,37.30
2023-02-13T17:38:20.517Z,37.50
2023-02-13T17:40:47.809Z,37.56
2023-02-13T17:43:16.899Z,37.19
2023-02-13T17:45:43.831Z,36.75
2023-02-13T17:48:10.803Z,36.61
2023-02-13T17:50:38.247Z,36.28
2023-02-13T17:53:07.700Z,36.17
2023-02-13T17:55:37.542Z,36.00
2023-02-13T17:58:04.259Z,35.80
2023-02-13T18:00:33.055Z,35.76
2023-02-13T18:03:00.885Z,35.69
2023-02-13T18:05:28.593Z,35.98
2023-02-13T18:07:55.557Z,35.94
2023-02-13T18:10:27.986Z,35.84
2023-02-13T18:12:57.015Z,35.51
2023-02-13T18:15:24.317Z,35.37
2023-02-13T18:17:51.190Z,35.29
2023-02-13T18:20:20.637Z,35.53
2023-02-13T18:22:50.557Z,35.19
2023-02-13T18:25:19.242Z,35.32
2023-02-13T18:27:46.492Z,35.09
2023-02-13T18:30:17.673Z,35.12
2023-02-13T18:32:45.668Z,35.03
2023-02-13T18:35:12.288Z,35.01
2023-02-13T18:37:39.250Z,35.20
2023-02-13T18:40:09.939Z,35.47
2023-02-13T18:42:38.119Z,35.30
2023-02-13T18:45:04.866Z,35.51
2023-02-13T18:47:31.690Z,35.31
2023-02-13T18:52:12.552Z,35.59
2023-02-13T18:54:39.268Z,35.59
2023-02-13T18:57:06.314Z,35.38
2023-02-13T18:59:34.649Z,35.62
2023-02-13T19:02:03.189Z,35.73
2023-02-13T19:04:30.770Z,35.66
2023-02-13T19:06:57.660Z,35.48
2023-02-13T19:09:24.320Z,35.65
2023-02-13T19:11:51.615Z,35.46
2023-02-13T19:14:18.601Z,35.51
2023-02-13T19:16:45.382Z,35.56
2023-02-13T19:19:12.075Z,35.47
2023-02-13T19:21:39.610Z,35.22
2023-02-13T19:24:17.228Z,35.37
2023-02-13T19:26:44.557Z,35.14
2023-02-13T19:29:11.155Z,34.93
2023-02-13T19:31:39.436Z,35.30
2023-02-13T19:34:06.348Z,35.28
2023-02-13T19:36:33.211Z,35.54
2023-02-13T19:39:04.119Z,35.24
2023-02-13T19:41:31.197Z,35.44
2023-02-13T19:43:58.447Z,35.58
2023-02-13T19:46:27.842Z,35.97
2023-02-13T19:48:54.583Z,35.85
2023-02-13T19:51:24.405Z,35.99
2023-02-13T19:54:06.531Z,35.97
2023-02-13T19:56:36.479Z,35.76
2023-02-13T19:59:06.941Z,35.93
2023-02-13T20:01:33.864Z,35.89
2023-02-13T20:04:03.565Z,35.74
2023-02-13T20:06:36.159Z,35.79
2023-02-13T20:09:09.826Z,35.57
2023-02-13T20:11:39.181Z,35.49
2023-02-13T20:14:11.551Z,35.42
2023-02-13T20:16:39.007Z,35.40
2023-02-13T20:19:11.765Z,35.40
2023-02-13T20:21:42.949Z,35.50
2023-02-13T20:24:12.670Z,35.58
2023-02-13T20:26:39.744Z,35.45
2023-02-13T20:29:07.563Z,35.53
2023-02-13T20:31:35.816Z,35.62
2023-02-13T20:34:05.980Z,35.73
2023-02-13T20:36:33.571Z,35.98
2023-02-13T20:39:03.559Z,35.92
2023-02-13T20:41:33.506Z,35.46
2023-02-13T20:44:05.937Z,35.68
2023-02-13T20:46:35.292Z,35.64
2023-02-13T20:49:02.223Z,35.58
2023-02-13T20:51:31.650Z,35.43
2023-02-13T20:53:59.958Z,35.36
2023-02-13T20:56:30.516Z,35.23
2023-02-13T20:58:59.628Z,35.33
2023-02-13T21:01:32.964Z,35.23
2023-02-13T21:04:00.112Z,35.23
2023-02-13T21:06:32.973Z,34.92
2023-02-13T21:09:00.850Z,35.01
2023-02-13T21:11:30.938Z,34.95
2023-02-13T21:13:58.723Z,35.07
2023-02-13T21:16:28.280Z,35.06
2023-02-13T21:19:00.304Z,34.76
2023-02-13T21:21:31.590Z,35.05
2023-02-13T21:24:08.039Z,35.02
2023-02-13T21:26:35.681Z,35.12
2023-02-13T21:29:02.403Z,34.89
2023-02-13T21:31:35.805Z,35.49
2023-02-13T21:34:08.822Z,35.63
2023-02-13T21:36:36.990Z,35.62
2023-02-13T21:39:06.026Z,35.53
2023-02-13T21:41:32.800Z,35.62
2023-02-13T21:43:59.418Z,35.51
2023-02-13T21:46:29.010Z,35.37
2023-02-13T21:48:58.630Z,35.37
2023-02-13T21:51:27.273Z,35.56
2023-02-13T21:53:57.225Z,35.44
2023-02-13T21:56:26.817Z,35.18
2023-02-13T21:58:54.212Z,35.33
2023-02-13T22:01:27.555Z,35.47
2023-02-13T22:03:59.840Z,35.70
2023-02-13T22:06:28.997Z,35.90
2023-02-13T22:08:57.716Z,35.79
2023-02-13T22:11:24.770Z,35.70
2023-02-13T22:13:55.827Z,35.58
2023-02-13T22:16:22.825Z,35.44
2023-02-13T22:18:50.650Z,35.34
2023-02-13T22:21:20.656Z,35.42
2023-02-13T22:23:48.644Z,35.47
2023-02-13T22:26:20.770Z,35.58
2023-02-13T22:28:48.239Z,35.86
2023-02-13T22:31:15.618Z,35.75
2023-02-13T22:33:42.967Z,35.72
2023-02-13T22:36:12.722Z,35.79
2023-02-13T22:38:40.952Z,35.51
2023-02-13T22:41:12.264Z,35.70
2023-02-13T22:43:39.500Z,35.43
2023-02-13T22:46:27.412Z,35.48
2023-02-13T22:48:54.919Z,35.57
2023-02-13T22:51:24.715Z,35.66
2023-02-13T22:53:56.504Z,35.84
2023-02-13T22:56:24.560Z,35.70
2023-02-13T22:58:51.262Z,35.85
2023-02-13T23:01:20.815Z,35.96
2023-02-13T23:03:47.688Z,36.00
2023-02-13T23:06:15.929Z,35.85
2023-02-13T23:08:42.874Z,35.95
2023-02-13T23:11:31.927Z,36.13
2023-02-13T23:13:59.136Z,35.98
2023-02-13T23:16:26.502Z,35.94
2023-02-13T23:18:56.100Z,36.22
2023-02-13T23:21:23.716Z,36.02
2023-02-13T23:23:50.659Z,36.11
2023-02-13T23:26:18.180Z,36.32
2023-02-13T23:28:44.807Z,36.21
2023-02-13T23:31:11.632Z,36.44
2023-02-13T23:33:38.256Z,36.34
2023-02-13T23:36:05.324Z,36.39
2023-02-13T23:38:31.851Z,36.38
2023-02-13T23:41:06.367Z,36.58
2023-02-13T23:43:33.004Z,36.52
2023-02-13T23:45:59.621Z,36.61
2023-02-13T23:48:26.411Z,36.52
2023-02-13T23:50:53.206Z,36.71
2023-02-13T23:53:22.693Z,36.60
2023-02-13T23:55:49.477Z,36.57
2023-02-13T23:58:16.023Z,36.57
